Tiempo atmosférico en la estación meteorológica de Talarn, Lleida (799 m.)



Fecha
DESCASC
Temp. máxima en grados centígrados (hora)
DESCASC
Temp. mínima en grados centígrados (hora)
DESCASC
Temp. media en grados centígrados
DESCASC
Racha de viento máxima en m/sg (hora)
DESCASC
Velocidad máxima media en intervalos de 10 minutos(hora)
DESCASC
Precipitaciones diarias en mm
DESCASC
Precipitaciones de 00:00 a 06:00 en mm
DESCASC
Precipitaciones de 06:00 a 12:00 en mm
DESCASC
Precipitaciones de 12:00 a 18:00 en mm
DESCASC
Precipitaciones de 18:00 a 24:00 en mm
DESCASC
15-08-2019 31 (16:10) 15.8 (07:10) 23.4 12.78 (17:00) 7.5 (18:00) 0 0 0 0 0
14-08-2019 31 (17:40) 12.7 (00:00) 21.8 11.39 (17:00) 7.78 (14:30) 0 0 0 0 0
13-08-2019 26.3 (15:00) 12.9 (00:00) 19.6 11.11 (16:50) 6.94 (16:00) 0 0 0 0 0
12-08-2019 28.1 (15:30) 18.1 (00:00) 23.1 13.61 (15:10) 7.78 (14:30) 0 0 0 0 0
11-08-2019 30.9 (18:30) 20.7 (00:00) 25.8 9.44 (16:30) 6.39 (14:20) 0 0 0 0 0
10-08-2019 33.1 (17:20) 20.4 (00:00) 26.7 12.22 (14:20) 7.22 (14:00) 0 0 0 0 0
09-08-2019 35.4 (16:50) 19 (00:00) 27.2 11.67 (17:30) 6.67 (13:40) 0 0 0 0 0
08-08-2019 32.6 (17:00) 16 (00:00) 24.3 9.72 (17:00) 6.11 (17:10) 0 0 0 0 0
07-08-2019 32.5 (14:50) 18.6 (00:00) 25.6 18.33 (16:00) 11.39 (16:00) 4.4 0 0 4.2 0.2
06-08-2019 35 (17:10) 19.9 (00:00) 27.4 10 (17:40) 7.22 (17:10) -- 0 0 -- 0
05-08-2019 35.3 (16:00) 18.3 (00:00) 26.8 8.89 (15:00) 6.11 (19:00) 0 0 0 0 0
04-08-2019 35.6 (16:40) 19 (00:00) 27.3 14.17 (16:40) 7.22 (16:40) 0 0 0 0 0
03-08-2019 35.1 (16:20) 16.6 (00:00) 25.8 9.72 (17:00) 5.83 (19:10) 0 0 0 0 0
02-08-2019 32.5 (16:10) 16.6 (00:00) 24.6 12.22 (17:00) 6.94 (17:10) 3.8 2.6 1.2 0 0
01-08-2019 32.6 (17:10) 17.4 (00:00) 25 7.78 (15:20) 5 (19:20) 0 0 0 0 0
31-07-2019 30.3 (16:00) 14.7 (00:00) 22.5 8.89 (15:30) 5.83 (15:30) 0 0 0 0 0
30-07-2019 29.6 (16:30) 18.2 (00:00) 23.9 10.28 (17:50) 6.39 (19:00) 0 0 0 0 0
29-07-2019 31.5 (17:00) 13.5 (00:00) 22.5 10.28 (17:00) 6.67 (17:00) 0 0 0 0 0
28-07-2019 27.8 (17:30) 12.9 (00:00) 20.3 9.44 (17:00) 5.83 (18:00) 0 0 0 0 0
27-07-2019 23 (17:20) 14.2 (00:00) 18.6 11.39 (08:30) 6.94 (08:30) 10.4 0 9.8 0.6 0
26-07-2019 29.8 (12:30) 18.2 (00:00) 24 14.17 (16:20) 8.33 (16:20) 0.8 0 0.8 0 0
25-07-2019 36.9 (16:00) 19.9 (00:00) 28.4 10.56 (18:00) 7.22 (18:30) 0 0 0 0 0
24-07-2019 38.3 (15:50) 19.8 (00:00) 29 11.11 (15:00) 6.94 (17:50) 0 0 0 0 0
23-07-2019 38.1 (16:20) 19.7 (00:00) 28.9 11.67 (15:30) 6.94 (15:20) 0 0 0 0 0
22-07-2019 37.3 (16:50) 19.6 (00:00) 28.4 10.56 (16:50) 6.67 (16:50) 0 0 0 0 0
21-07-2019 35.2 (16:40) 19 (00:00) 27.1 8.33 (18:20) 5.83 (18:30) 0 0 0 0 0
20-07-2019 34.5 (16:30) 18.6 (00:00) 26.6 9.17 (20:20) 6.11 (19:20) 0 0 0 0 0
19-07-2019 31.7 (15:50) 16 (00:00) 23.9 8.89 (16:10) 5.83 (14:50) 0 0 0 0 0

Gráficas

Temp. máximas Temp. mínimas Temp. medias Precipitaciones Rachas de viento máximas Velocidades máximas media en intervalos de 10 minutos

Datos horarios

Fecha y hora oficial Temperatura (ºC) Velocidad del viento (km/h) Dirección del viento Racha (km/h) Dirección de racha Precipitación (mm) Presión (hPa) Tendencia (hPa) Humedad (%)
2019-08-17 23:00:00 24.2 6 Oeste 15 Sudeste 0 923.6 1.1 62
2019-08-17 22:00:00 25.8 4 Noroeste 23 Sur 0 923.4 0.8 56
2019-08-17 21:00:00 27.4 9 Sudeste 30 Sudoeste 0 922.8 -0.1 45
2019-08-17 20:00:00 31.8 11 Sudoeste 23 Oeste 0 922.5 -0.7 25
2019-08-17 19:00:00 33.3 19 Sudoeste 33 Sudoeste 0 922.6 -1 21
2019-08-17 18:00:00 32.9 17 Sudeste 27 Sur 0 922.9 -1.2 27
2019-08-17 17:00:00 33.3 17 Sur 26 Sur 0 923.2 -1.8 24
2019-08-17 16:00:00 32.9 21 Sur 31 Sur 0 923.6 -2 23
2019-08-17 15:00:00 34.1 14 Sur 26 Sur 0 924.1 -2.1 22
2019-08-17 14:00:00 32.1 13 Sur 24 Sur 0 925 -1.3 21
2019-08-17 13:00:00 30.8 10 Sur 19 Sur 0 925.6 -0.8 24
2019-08-17 12:00:00 28.5 5 Sur 14 Sur 0 926.2 -0.1 26
2019-08-17 11:00:00 26.6 6 Sur 12 Sur 0 926.3 0.3 31
2019-08-17 10:00:00 23.1 6 Sur 9 Sur 0 926.4 0.5 38
2019-08-17 09:00:00 22.2 4 Sudeste 9 Nordeste 0 926.3 0.2 37
2019-08-17 08:00:00 18.9 2 Nordeste 5 Norte 0 926 -0.1 50
2019-08-17 07:00:00 17.1 2 Este 5 Norte 0 925.9 -0.3 55
2019-08-17 06:00:00 18.5 0 Calma 5 Sudoeste 0 926.1 -0.3 50
2019-08-17 05:00:00 19.2 5 Noroeste 12 Noroeste 0 926.1 -0.4 48
2019-08-17 04:00:00 20.3 0 Calma 8 Noroeste 0 926.2 -0.4 44
2019-08-17 03:00:00 19.7 8 Noroeste 10 Noroeste 0 926.4 0.1 46
2019-08-17 02:00:00 20.6 9 Noroeste 10 Noroeste 0 926.5 0.5 44
2019-08-17 01:00:00 22 3 Nordeste 13 Noroeste 0 926.6 1.2 36
2019-08-17 00:00:00 21.7 9 Norte 13 Noroeste 0 926.3 1.4 38
2019-08-16 23:00:00 23 4 Oeste 12 Norte 0 926 1.5 33
2019-08-16 22:00:00 24.6 5 Este 10 Este 0 925.4 1 27
2019-08-16 21:00:00 25.9 7 Sudoeste 19 Oeste 0 924.9 0.3 24
2019-08-16 20:00:00 29 11 Sudoeste 27 Sudoeste 0 924.5 -0.5 19
2019-08-16 19:00:00 30.4 14 Sudoeste 29 Sudoeste 0 924.4 -0.9 15
2019-08-16 18:00:00 31.4 15 Sur 34 Sur 0 924.6 -1.4 15
2019-08-16 17:00:00 32.1 15 Sudoeste 34 Sudoeste 0 925 -1.7 15
2019-08-16 16:00:00 32 20 Sur 35 Sur 0 925.3 -1.9 18
2019-08-16 15:00:00 30.7 19 Sur 32 Sur 0 926 -1.8 22
2019-08-16 14:00:00 29.9 15 Sur 29 Sur 0 926.7 -1.5 25
2019-08-16 13:00:00 27.4 7 Sur 22 Sur 0 927.2 -1.1 30
2019-08-16 12:00:00 25.4 9 Sur 22 Sur 0 927.8 -0.4 42
2019-08-16 11:00:00 23.1 9 Sur 15 Sur 0 928.2 0.4 50
2019-08-16 10:00:00 21.3 6 Sur 10 Sur 0 928.3 0.8 57
2019-08-16 09:00:00 19.6 3 Sur 6 Sur 0 928.2 0.8 66
2019-08-16 08:00:00 18.6 0 Calma 9 Norte 0 927.8 0.1 76
2019-08-16 07:00:00 16.2 6 Norte 9 Norte 0 927.5 -0.5 82
2019-08-16 06:00:00 16.9 4 Noroeste 9 Norte 0 927.4 -0.6 81
2019-08-16 05:00:00 17.2 4 Oeste 7 Oeste 0 927.7 -0.7 81
2019-08-16 04:00:00 18.2 2 Sudeste 7 Noroeste 0 928 -0.4 79
2019-08-16 03:00:00 18.6 3 Oeste 11 Norte 0 928 0 79
2019-08-16 02:00:00 19.8 3 Sur 20 Sudeste 0 928.4 1 75
2019-08-16 01:00:00 20.8 7 Sudeste 14 Este 0 928.4 1.5 69
2019-08-16 00:00:00 21.8 8 Sudeste 18 Sur 0 928 1.8 57
2019-08-15 23:00:00 21.1 5 Norte 10 Noroeste 0 927.4 1.6 33
2019-08-15 22:00:00 22 7 Noroeste 15 Sudoeste 0 926.9 1.6 32
2019-08-15 21:00:00 25.7 10 Sudoeste 31 Oeste 0 926.2 0.9 25
2019-08-15 20:00:00 28.1 21 Sudoeste 34 Sudoeste 0 925.8 0.4 21
2019-08-15 19:00:00 29.4 22 Oeste 38 Sudoeste 0 925.3 -0.5 23
2019-08-15 18:00:00 30.1 27 Sudoeste 41 Sudoeste 0 925.3 -0.9 24
2019-08-15 17:00:00 28.8 23 Sudoeste 46 Sudoeste 0 925.4 -1.1 29
2019-08-15 16:00:00 30.4 18 Sudoeste 42 Sudoeste 0 925.8 -1.2 27
2019-08-15 15:00:00 29.1 26 Sudoeste 39 Sudoeste 0 926.2 -1.4 32
2019-08-15 14:00:00 29.6 21 Sudoeste 40 Sudoeste 0 926.5 -1.6 32
2019-08-15 13:00:00 28.5 17 Sur 27 Sur 0 927 -1.4 33
2019-08-15 12:00:00 25.8 9 Sur 18 Sur 0 927.6 -0.5 39
2019-08-15 11:00:00 24.1 8 Sur 18 Sur 0 928.1 0.4 45
2019-08-15 10:00:00 21.7 4 Sur 10 Sur 0 928.4 1.2 45
2019-08-15 09:00:00 20.4 4 Sudeste 7 Sur 0 928.1 1.1 48
2019-08-15 08:00:00 18 4 Sudoeste 10 Norte 0 927.7 0.9 56
2019-08-15 07:00:00 15.9 7 Norte 12 Norte 0 927.2 0.3 64
2019-08-15 06:00:00 16.6 5 Norte 8 Noroeste 0 927 -0.1 62
2019-08-15 05:00:00 18.1 3 Sudoeste 13 Norte 0 926.8 -0.6 54
2019-08-15 04:00:00 18 9 Norte 13 Noroeste 0 926.9 -0.5 54
2019-08-15 03:00:00 18.6 6 Noroeste 9 Noroeste 0 927.1 -0.1 53
2019-08-15 02:00:00 19.4 5 Noroeste 11 Norte 0 927.4 0.7 50
2019-08-15 01:00:00 20.6 4 Noroeste 12 Sudeste 0 927.4 1.2 42
2019-08-15 00:00:00 21.6 6 Este 12 Norte 0 927.2 1.7 38
2019-08-14 23:00:00 21.6 5 Noroeste 10 Noroeste 0 926.7 1.6 35
2019-08-14 22:00:00 22.5 4 Este 9 Sudeste 0 926.2 1.3 33
2019-08-14 21:00:00 25.6 6 Sudoeste 24 Sudoeste 0 925.5 0.8 27
2019-08-14 20:00:00 28.5 18 Sudoeste 30 Sudoeste 0 925.1 -0.2 22
2019-08-14 19:00:00 29.5 18 Sudoeste 41 Sudoeste 0 924.9 -0.7 19
2019-08-14 18:00:00 30.5 21 Sudoeste 39 Oeste 0 924.7 -1.2 17
2019-08-14 17:00:00 30.1 22 Sudoeste 41 Sudoeste 0 925.3 -1 16
2019-08-14 16:00:00 30 23 Sudoeste 38 Sudoeste 0 925.6 -1.2 16
2019-08-14 15:00:00 29.3 25 Sudoeste 39 Sudoeste 0 925.9 -1.2 16
2019-08-14 14:00:00 27.9 18 Sudoeste 33 Sudoeste 0 926.3 -1.1 20
2019-08-14 13:00:00 24.5 9 Sudeste 20 Sur 0 926.8 -0.7 26
2019-08-14 12:00:00 22.8 10 Sur 16 Sur 0 927.1 -0.4 31
2019-08-14 11:00:00 21 8 Sur 15 Sur 0 927.4 0.2 37
2019-08-14 10:00:00 18.8 6 Sur 10 Sur 0 927.5 0.7 45
2019-08-14 09:00:00 16.9 3 Sur 6 Sur 0 927.5 0.9 48
2019-08-14 08:00:00 15.5 3 Sudeste 6 Norte 0 927.2 0.4 52
2019-08-14 07:00:00 13.3 3 Noroeste 6 Norte 0 926.8 -0.1 57
2019-08-14 06:00:00 13.4 3 Nordeste 10 Noroeste 0 926.6 -0.2 57
2019-08-14 05:00:00 15 3 Sur 8 Norte 0 926.8 -0.1 52
2019-08-14 04:00:00 15 3 Este 9 Sur 0 926.9 0 51
2019-08-14 03:00:00 16.4 2 Oeste 7 Norte 0 926.8 -0.2 46
2019-08-14 02:00:00 16.7 8 Norte 10 Norte 0 926.9 0.3 46
2019-08-14 01:00:00 16.9 8 Norte 15 Norte 0 926.9 0.7 44
2019-08-14 00:00:00 18.2 3 Este 14 Norte 0 927 1.3 40
2019-08-13 23:00:00 18.9 8 Norte 15 Norte 0 926.6 1.4 38
2019-08-13 22:00:00 20.1 8 Norte 21 Oeste 0 926.2 1.2 35
2019-08-13 21:00:00 22.1 14 Oeste 25 Oeste 0 925.7 0.5 29
2019-08-13 20:00:00 24.1 15 Oeste 31 Oeste 0 925.2 -0.1 27
2019-08-13 19:00:00 25.2 21 Oeste 35 Oeste 0 925 -0.6 26
2019-08-13 18:00:00 26.1 19 Sudoeste 36 Oeste 0 925.2 -1 21
2019-08-13 17:00:00 26.3 20 Sudoeste 40 Sudoeste 0 925.3 -1.2 17
2019-08-13 16:00:00 25.2 25 Sudoeste 39 Sudoeste 0 925.6 -1.3 26
2019-08-13 15:00:00 26 21 Sudoeste 36 Sudoeste 0 926.2 -1 23
2019-08-13 14:00:00 24.3 15 Sudoeste 27 Sudoeste 0 926.5 -1 27
2019-08-13 13:00:00 22.4 15 Sur 27 Sur 0 926.9 -0.9 33
2019-08-13 12:00:00 21.3 10 Sur 18 Sur 0 927.2 -0.7 38
2019-08-13 11:00:00 19.8 6 Sudeste 13 Sur 0 927.5 -0.2 42
2019-08-13 10:00:00 18 6 Sur 12 Sur 0 927.8 0.8 48
2019-08-13 09:00:00 14.7 2 Sudoeste 9 Sur 0 927.9 0.9 60
2019-08-13 08:00:00 13.7 2 Sur 6 Noroeste 0 927.7 0.5 63
2019-08-13 07:00:00 13.4 2 Oeste 10 Noroeste 0 927 -0.6 62
2019-08-13 06:00:00 13.4 5 Oeste 8 Sur 0 927 -0.8 63
2019-08-13 05:00:00 14.3 4 Norte 12 Norte 0 927.2 -0.3 54
2019-08-13 04:00:00 14.8 3 Sudoeste 6 Sur 0 927.6 0.3 55
2019-08-13 03:00:00 15.8 5 Sudeste 24 Nordeste 0 927.8 0.8 49
2019-08-13 02:00:00 17.5 14 Nordeste 25 Nordeste 0 927.5 0.9 43
2019-08-13 01:00:00 18 14 Nordeste 29 Nordeste 0 927.3 1.2 42
2019-08-13 00:00:00 18.2 15 Nordeste 27 Nordeste 0 927 1.7 42
2019-08-12 23:00:00 18.6 13 Norte 22 Norte 0 926.6 2 40
2019-08-12 22:00:00 19.2 6 Nordeste 27 Oeste 0 926.1 1.9 33
2019-08-12 21:00:00 22.1 17 Oeste 28 Sudoeste 0 925.3 1.3 26
2019-08-12 20:00:00 24.4 18 Sudoeste 36 Oeste 0 924.6 0.8 19
2019-08-12 19:00:00 25.7 24 Sudoeste 41 Sudoeste 0 924.2 0 19
2019-08-12 18:00:00 27 23 Sudoeste 39 Sudoeste 0 924 -0.3 20
2019-08-12 17:00:00 27.3 24 Sudoeste 46 Sudoeste 0 923.8 -0.6 22
2019-08-12 16:00:00 27.5 24 Sudoeste 49 Sudoeste 0 924.2 -0.4 24
2019-08-12 15:00:00 27.8 25 Sudoeste 46 Sudoeste 0 924.3 -0.6 26
2019-08-12 14:00:00 27.6 16 Sudoeste 39 Sudoeste 0 924.4 -0.3 29
2019-08-12 13:00:00 26.4 23 Sur 40 Sudoeste 0 924.6 0.1 34
2019-08-12 12:00:00 25.4 14 Sur 22 Sur 0 924.9 0.7 39
2019-08-12 11:00:00 23.5 9 Sur 20 Sur 0 924.7 1 46
2019-08-12 10:00:00 22 5 Sudeste 13 Este 0 924.5 1.5 49
2019-08-12 09:00:00 19.6 4 Oeste 9 Este 0 924.2 1.3 55
2019-08-12 08:00:00 18.9 7 Sur 16 Sur 0 923.7 0.9 57
2019-08-12 07:00:00 19.4 9 Oeste 12 Sudoeste 0 923 0.2 59
2019-08-12 06:00:00 20 8 Sudoeste 12 Sudoeste 0 922.9 -0.2 66
2019-08-12 05:00:00 20.6 3 Sur 12 Este 0 922.8 -0.4 74
2019-08-12 04:00:00 20.9 5 Nordeste 11 Este 0 922.8 -0.7 76
2019-08-12 03:00:00 21.3 5 Nordeste 13 Sudeste 0 923.1 -0.2 72
2019-08-12 02:00:00 22.7 6 Sur 17 Sudeste 0 923.2 0.2 67
2019-08-12 01:00:00 23.5 3 Sudeste 10 Noroeste 0 923.5 0.9 37
2019-08-12 00:00:00 22.8 9 Noroeste 12 Sudoeste 0 923.3 1 37
2019-08-11 23:00:00 24.2 2 Sur 18 Oeste 0 923 0.9 39
2019-08-11 22:00:00 26 13 Oeste 18 Oeste 0 922.6 0.7 27
2019-08-11 21:00:00 26.7 10 Oeste 22 Oeste 0 922.3 0.4 27
2019-08-11 20:00:00 28.7 13 Oeste 27 Oeste 0 922.1 -0.4 24
2019-08-11 19:00:00 28.9 12 Oeste 31 Oeste 0 921.9 -0.6 25
2019-08-11 18:00:00 30.4 10 Sudeste 28 Sudoeste 0 921.9 -0.9 26
2019-08-11 17:00:00 29 12 Sudoeste 34 Sudoeste 0 922.5 -0.8 37
2019-08-11 16:00:00 28.9 15 Oeste 28 Oeste 0 922.5 -1.3 38
2019-08-11 15:00:00 28.5 19 Oeste 32 Oeste 0 922.8 -1.4 41
2019-08-11 14:00:00 28.3 17 Sudoeste 30 Sudoeste 0 923.3 -1.2 42
2019-08-11 13:00:00 27.5 8 Sur 18 Sur 0 923.8 -0.7 45
2019-08-11 12:00:00 26.2 12 Sudeste 19 Sur 0 924.2 -0.4 48
2019-08-11 11:00:00 24.6 11 Sur 23 Sudeste 0 924.5 0 52
2019-08-11 10:00:00 25.1 10 Sudeste 17 Sur 0 924.5 0 53
2019-08-11 09:00:00 23.3 7 Sur 13 Sudeste 0 924.6 0.1 61
2019-08-11 08:00:00 22 4 Este 12 Sudeste 0 924.5 -0.4 70
2019-08-11 07:00:00 21.4 3 Noroeste 6 Sudoeste 0 924.5 -0.5 73
2019-08-11 06:00:00 21.2 5 Nordeste 10 Sudeste 0 924.5 -1 74
2019-08-11 05:00:00 21.5 4 Oeste 10 Nordeste 0 924.9 -1 74
2019-08-11 04:00:00 22.1 3 Sudoeste 13 Sur 0 925 -1 73
2019-08-11 03:00:00 23.6 4 Sudeste 20 Sudeste 0 925.5 -0.5 70
2019-08-11 02:00:00 23.7 9 Sudeste 17 Sudeste 0 925.9 0 66
2019-08-11 01:00:00 24.4 12 Sudeste 20 Sudeste 0 926 0.5 58
2019-08-11 00:00:00 24.6 6 Este 10 Este 0 926 0.8 42
2019-08-10 23:00:00 24.5 5 Norte 17 Oeste 0 925.9 0.8 41
2019-08-10 22:00:00 27 12 Oeste 17 Oeste 0 925.5 0.5 34
2019-08-10 21:00:00 28.1 14 Oeste 25 Sudoeste 0 925.2 0.1 31
2019-08-10 20:00:00 28.9 15 Oeste 30 Sudoeste 0 925.1 -0.3 29
2019-08-10 19:00:00 31.7 13 Sudoeste 38 Sudoeste 0 925 -0.7 24
2019-08-10 18:00:00 32.3 19 Sudoeste 38 Oeste 0 925.1 -0.9 23
2019-08-10 17:00:00 32.2 25 Sur 44 Sudoeste 0 925.4 -0.7 20
2019-08-10 16:00:00 31.9 21 Sudoeste 40 Sudoeste 0 925.7 -0.6 23
2019-08-10 15:00:00 32.6 19 Sur 44 Sudoeste 0 926 -0.8 23
2019-08-10 14:00:00 31.5 26 Sudoeste 43 Sudoeste 0 926.1 -0.5 22
2019-08-10 13:00:00 30.7 16 Sudoeste 35 Sudoeste 0 926.3 -0.2 26
2019-08-10 12:00:00 29.4 17 Sudoeste 31 Sudoeste 0 926.8 0.6 31
2019-08-10 11:00:00 28.1 13 Oeste 26 Sur 0 926.6 1 37
2019-08-10 10:00:00 26.5 15 Sudoeste 24 Oeste 0 926.5 1.4 43
2019-08-10 09:00:00 24.6 4 Sur 10 Sudoeste 0 926.2 1.5 49
2019-08-10 08:00:00 23.3 2 Sudeste 6 Norte 0 925.6 1.1 54
2019-08-10 07:00:00 21.6 2 Sudoeste 8 Norte 0 925.1 0.8 59
2019-08-10 06:00:00 21.2 6 Norte 9 Sur 0 924.7 0.7 62
2019-08-10 05:00:00 22.1 5 Sur 12 Norte 0 924.5 0.5 56
2019-08-10 04:00:00 23.3 6 Sur 10 Sudoeste 0 924.3 0.6 51
2019-08-10 03:00:00 25.9 6 Sudoeste 28 Oeste 0 924 0.5 43
2019-08-10 02:00:00 26.8 17 Noroeste 32 Noroeste 0 924 0.7 39
2019-08-10 01:00:00 27.6 12 Oeste 17 Oeste 0 923.7 1.2 34
2019-08-10 00:00:00 26.7 11 Noroeste 20 Sudoeste 0 923.5 1.7 34
2019-08-09 23:00:00 27.4 6 Oeste 14 Sudoeste 0 923.3 1.8 31
2019-08-09 22:00:00 28.7 7 Oeste 16 Noroeste 0 922.5 1 28
2019-08-09 21:00:00 29.8 11 Noroeste 24 Oeste 0 921.8 0 26
2019-08-09 20:00:00 33.2 13 Oeste 33 Sudoeste 0 921.5 -0.5 20
2019-08-09 19:00:00 33.9 24 Sudoeste 40 Sudoeste 0 921.5 -0.9 19
2019-08-09 18:00:00 34.5 13 Oeste 42 Sudoeste 0 921.8 -0.9 19
2019-08-09 17:00:00 35.2 23 Sudoeste 40 Sudoeste 0 922 -1 17
2019-08-09 16:00:00 35.3 21 Sudoeste 39 Sudoeste 0 922.4 -0.7 17
2019-08-09 15:00:00 34.7 22 Oeste 39 Sudoeste 0 922.7 -0.8 15
2019-08-09 14:00:00 34.3 20 Oeste 38 Sudoeste 0 923 -0.6 18
2019-08-09 13:00:00 33.7 15 Sudoeste 24 Sudoeste 0 923.1 -0.4 22
2019-08-09 12:00:00 30.7 9 Sur 19 Sur 0 923.5 0.1 33
2019-08-09 11:00:00 29.2 6 Sur 12 Sur 0 923.6 0.3 38
2019-08-09 10:00:00 25.7 4 Sur 10 Sur 0 923.5 0.4 49
2019-08-09 09:00:00 23.3 3 Sudoeste 9 Sur 0 923.4 0.5 56
2019-08-09 08:00:00 23 6 Norte 8 Noroeste 0 923.3 0.2 59
2019-08-09 07:00:00 19.5 8 Norte 10 Noroeste 0 923.1 -0.3 65
2019-08-09 06:00:00 21 5 Sur 9 Norte 0 922.9 -0.5 59
2019-08-09 05:00:00 21.8 2 Sudoeste 5 Nordeste 0 923.1 -0.2 55
2019-08-09 04:00:00 22.6 5 Oeste 13 Norte 0 923.4 0.2 53
2019-08-09 03:00:00 21.9 3 Norte 10 Norte 0 923.4 0.3 56
2019-08-09 02:00:00 23.1 10 Norte 14 Noroeste 0 923.3 0.6 50
2019-08-09 01:00:00 23.5 9 Norte 15 Norte 0 923.2 1.1 49
2019-08-09 00:00:00 23.3 11 Noroeste 14 Noroeste 0 923.1 1.7 50
2019-08-08 23:00:00 24.6 6 Norte 13 Norte 0 922.7 1.2 45
2019-08-08 22:00:00 27.1 5 Sudoeste 10 Nordeste 0 922.1 0.8 38
2019-08-08 21:00:00 27 6 Noroeste 22 Sudoeste 0 921.4 0 38
2019-08-08 20:00:00 30.2 17 Sudoeste 29 Oeste 0 921.5 0 30
2019-08-08 19:00:00 31.7 18 Sudoeste 30 Sur 0 921.3 -0.7 28
2019-08-08 18:00:00 31.5 12 Sudoeste 35 Sudoeste 0 921.4 -0.8 29
2019-08-08 17:00:00 32.6 16 Sudoeste 35 Sudoeste 0 921.5 -1.1 27
2019-08-08 16:00:00 30.9 16 Sudoeste 33 Sudoeste 0 922 -0.9 32
2019-08-08 15:00:00 31.6 14 Sudoeste 31 Oeste 0 922.2 -1 31
2019-08-08 14:00:00 30.8 12 Oeste 23 Oeste 0 922.6 -0.7 31
2019-08-08 13:00:00 28.8 11 Sur 23 Sur 0 922.9 -0.3 37
2019-08-08 12:00:00 26.9 8 Sur 15 Sur 0 923.2 0 45
2019-08-08 11:00:00 24.5 5 Sur 12 Sur 0 923.3 0.3 58
2019-08-08 10:00:00 22 6 Sur 9 Sur 0 923.2 0.3 70
2019-08-08 09:00:00 20.1 3 Sudoeste 5 Sudoeste 0 923.2 0.6 75
2019-08-08 08:00:00 18.6 3 Oeste 5 Norte 0 923 0.4 81
2019-08-08 07:00:00 16 4 Norte 5 Norte 0 922.9 0.2 85
2019-08-08 06:00:00 17.6 0 Calma 4 Nordeste 0 922.6 -0.2 82
2019-08-08 05:00:00 17.6 3 Norte 4 Norte 0 922.6 -0.4 82
2019-08-08 04:00:00 18.4 0 Calma 10 Norte 0 922.7 -0.3 80
2019-08-08 03:00:00 18 3 Norte 6 Norte 0 922.8 0.4 81
2019-08-08 02:00:00 19.3 0 Calma 9 Norte 0 923 0.7 72
2019-08-08 01:00:00 18.9 9 Norte 10 Norte 0 923 0.8 76
2019-08-08 00:00:00 19.4 2 Sudeste 14 Norte 0 922.4 0.3 74
2019-08-07 23:00:00 18.8 13 Norte 16 Noroeste 0 922.3 0.5 77
2019-08-07 22:00:00 19.7 6 Oeste 22 Norte 0 922.2 0.3 74
2019-08-07 21:00:00 19.3 8 Norte 14 Nordeste 0.2 922.1 -0.3 84
2019-08-07 20:00:00 21.2 10 Norte 25 Oeste 0 921.8 -0.4 70
2019-08-07 19:00:00 20.9 6 Norte 15 Sudoeste 0 921.9 0.7 74
2019-08-07 18:00:00 19.4 12 Oeste 30 Norte 0.8 922.4 2.2 78
2019-08-07 17:00:00 19.4 17 Nordeste 50 Noroeste 3.4 922.2 1.5 72
2019-08-07 16:00:00 21.5 41 Noroeste 66 Noroeste 0 921.2 -0.1 66
2019-08-07 15:00:00 30.4 26 Sur 39 Sur 0 920.2 -1.2 39
2019-08-07 14:00:00 29.7 22 Sur 30 Sur 0 920.7 -0.6 41
2019-08-07 13:00:00 29 10 Sudoeste 22 Sur 0 921.3 0.4 43
2019-08-07 12:00:00 27.8 11 Sur 22 Sur 0 921.4 0.7 48
2019-08-07 11:00:00 26.4 12 Sur 20 Sur 0 921.3 0.8 51
2019-08-07 10:00:00 25.5 9 Sudeste 16 Sur 0 920.9 1.4 59
2019-08-07 09:00:00 24.1 6 Sudeste 12 Sudeste 0 920.7 0.7 65
2019-08-07 08:00:00 23.1 3 Sur 13 Oeste 0 920.5 0.4 68
2019-08-07 07:00:00 21.7 5 Sudeste 15 Sudeste 0 919.5 -0.5 72
2019-08-07 06:00:00 22.1 8 Sur 14 Sur 0 920 0.1 69
2019-08-07 05:00:00 22.8 3 Sudeste 13 Sudeste 0 920.1 -0.2 68
2019-08-07 04:00:00 23.7 5 Sudoeste 18 Sudeste 0 920 -0.7 59
2019-08-07 03:00:00 23.4 6 Norte 8 Noroeste 0 919.9 -1 54
2019-08-07 02:00:00 24 4 Nordeste 8 Noroeste 0 920.3 -0.5 49
2019-08-07 01:00:00 24.1 10 Noroeste 16 Norte 0 920.7 0.3 45
2019-08-07 00:00:00 25.8 7 Nordeste 14 Noroeste 0 920.9 0.9 40
2019-08-06 23:00:00 25.6 13 Norte 17 Norte 0 920.8 0.8 40
2019-08-06 22:00:00 27 6 Sudeste 13 Norte 0 920.4 0.4 34
2019-08-06 21:00:00 27.6 10 Noroeste 13 Noroeste 0 920 -0.3 29
2019-08-06 20:00:00 29.9 8 Sudoeste 21 Sur 0 920 -0.5 29
2019-08-06 19:00:00 32.8 10 Sur 35 Sur 0 920 -1 22
2019-08-06 18:00:00 32.9 19 Sudoeste 36 Sur 0 920.3 -1.2 24
2019-08-06 17:00:00 34.8 19 Sur 34 Sur 0 920.5 -1.6 21
2019-08-06 16:00:00 33.7 12 Sur 34 Sur 0 921 -1.6 24
2019-08-06 15:00:00 34 12 Sur 28 Sudeste 0 921.5 -1.5 24
2019-08-06 14:00:00 33.5 13 Sur -- -- -- 922.1 -0.9 26
2019-08-06 13:00:00 32.2 10 Sur 23 Sur 0 922.6 -0.5 29
2019-08-06 12:00:00 30.5 9 Sur 23 Sur 0 923 -0.1 33
2019-08-06 11:00:00 29.3 7 Sudeste 18 Sur 0 923 -0.2 34
2019-08-06 10:00:00 27.5 5 Sur 9 Sur 0 923.1 -0.2 38
2019-08-06 09:00:00 25.2 4 Sur 7 Sur 0 923.1 -0.2 45
2019-08-06 08:00:00 24.3 3 Noroeste 13 Norte 0 923.2 -0.2 47
2019-08-06 07:00:00 20.3 9 Noroeste 12 Norte 0 923.3 -0.4 59
2019-08-06 06:00:00 21.7 6 Oeste 13 Norte 0 923.3 -0.4 53
2019-08-06 05:00:00 21.4 8 Noroeste 14 Norte 0 923.4 -0.5 53
2019-08-06 04:00:00 21.4 7 Noroeste 10 Norte 0 923.7 -0.3 56
2019-08-06 03:00:00 22.4 4 Oeste 15 Norte 0 923.7 -0.3 50
2019-08-06 02:00:00 22.8 5 Oeste 8 Norte 0 923.9 0.1 49
2019-08-06 01:00:00 24 3 Sudoeste 9 Norte 0 924 0.4 45
2019-08-06 00:00:00 24.4 2 Sudoeste 10 Noroeste 0 924 1.2 43
2019-08-05 23:00:00 25.3 7 Nordeste 15 Sudeste 0 923.8 1.5 43
2019-08-05 22:00:00 26.9 8 Este 23 Sur 0 923.6 1.5 40
2019-08-05 21:00:00 28.4 11 Sudeste 23 Sur 0 922.8 0.4 35
2019-08-05 20:00:00 30.8 19 Sur 28 Sur 0 922.3 -0.5 29
2019-08-05 19:00:00 33 22 Sur 30 Sur 0 922.1 -1 21
2019-08-05 18:00:00 33.8 14 Sur 23 Sur 0 922.4 -1 20
2019-08-05 17:00:00 31.9 11 Sur 26 Sur 0 922.8 -1.1 24
2019-08-05 16:00:00 34.4 15 Sur 30 Sur 0 923.1 -1.4 22
2019-08-05 15:00:00 34.3 15 Sudeste 32 Sur 0 923.4 -1.6 23
2019-08-05 14:00:00 33.3 11 Sur 22 Sudeste 0 923.9 -1.5 25
2019-08-05 13:00:00 32.1 11 Sur 21 Sur 0 924.5 -0.8 27
2019-08-05 12:00:00 29.8 10 Sudoeste 19 Sur 0 925 -0.4 29
2019-08-05 11:00:00 28.2 8 Sur 15 Sur 0 925.4 0.1 35
2019-08-05 10:00:00 26.4 4 Sur 11 Sur 0 925.3 0.2 41
2019-08-05 09:00:00 23.9 3 Sur 7 Sur 0 925.4 0.6 53
2019-08-05 08:00:00 22.7 2 Norte 6 Norte 0 925.3 0.5 56
2019-08-05 07:00:00 21 3 Oeste 6 Oeste 0 925.1 0 63
2019-08-05 06:00:00 18.8 4 Noroeste 8 Noroeste 0 924.8 -0.2 69
2019-08-05 05:00:00 20.8 2 Este 6 Oeste 0 924.8 -0.2 59
2019-08-05 04:00:00 22.3 5 Oeste 6 Oeste 0 925.1 0 57
2019-08-05 03:00:00 22.8 4 Oeste 11 Noroeste 0 925 0 55
2019-08-05 02:00:00 22.5 8 Noroeste 10 Norte 0 925 0.1 60
2019-08-05 01:00:00 23.9 5 Sudoeste 8 Oeste 0 925.1 0.4 52
2019-08-05 00:00:00 23.4 7 Oeste 12 Nordeste 0 925 1.3 53
2019-08-04 23:00:00 23.8 6 Norte 12 Norte 0 924.9 2.1 53
2019-08-04 22:00:00 26 5 Noroeste 19 Sudeste 0 924.7 2.2 46
2019-08-04 21:00:00 27.1 13 Sudeste 32 Sur 0 923.7 1.4 46
2019-08-04 20:00:00 30.4 20 Sudoeste 32 Sur 0 922.8 0.6 31
2019-08-04 19:00:00 33.1 14 Sudoeste 30 Sudoeste 0 922.5 -0.1 21
2019-08-04 18:00:00 34.4 18 Sudoeste 34 Sur 0 922.3 -0.7 22
2019-08-04 17:00:00 34.6 24 Sudoeste 51 Sudoeste 0 922.2 -1.3 17
2019-08-04 16:00:00 33 20 Sur 30 Sur 0 922.6 -1.4 24
2019-08-04 15:00:00 34.9 13 Sur 29 Sur 0 923 -1.4 21
2019-08-04 14:00:00 33.5 15 Sur 29 Sur 0 923.5 -1 26
2019-08-04 13:00:00 31.8 10 Sudeste 23 Sur 0 924 -0.7 29
2019-08-04 12:00:00 30.3 8 Sur 17 Sur 0 924.4 -0.4 31
2019-08-04 11:00:00 28.5 6 Sur 12 Sur 0 924.5 0 39
2019-08-04 10:00:00 25.7 6 Sur 12 Sur 0 924.7 0.6 47
2019-08-04 09:00:00 24.1 3 Sudoeste 6 Sur 0 924.8 0.8 52
2019-08-04 08:00:00 22.8 0 Calma 4 Sudoeste 0 924.5 0.6 54
2019-08-04 07:00:00 19.9 2 Sudeste 5 Noroeste 0 924.1 -0.2 60
2019-08-04 06:00:00 19.6 5 Noroeste 8 Norte 0 924 -0.2 61
2019-08-04 05:00:00 21.2 2 Noroeste 9 Norte 0 923.9 -0.1 57
2019-08-04 04:00:00 20.8 5 Norte 10 Norte 0 924.3 0.3 59
2019-08-04 03:00:00 20.8 5 Noroeste 7 Noroeste 0 924.2 0.2 57
2019-08-04 02:00:00 22.4 4 Oeste 6 Norte 0 924 0.2 52
2019-08-04 01:00:00 23.7 2 Sur 11 Noroeste 0 924 0.8 47
2019-08-04 00:00:00 23.7 3 Oeste 11 Noroeste 0 924 1.5 49
2019-08-03 23:00:00 24.9 5 Este 13 Este 0 923.8 1.9 44
2019-08-03 22:00:00 26.5 10 Noroeste 14 Noroeste 0 923.2 1.3 44
2019-08-03 21:00:00 27.4 12 Sudeste 21 Sudeste 0 922.5 0.4 37
2019-08-03 20:00:00 30.1 12 Sur 32 Sudoeste 0 921.9 -0.5 29
2019-08-03 19:00:00 32.6 19 Sur 33 Sur 0 921.9 -1 24
2019-08-03 18:00:00 33.9 16 Sudoeste 29 Sudoeste 0 922.1 -1.4 17
2019-08-03 17:00:00 34.1 21 Sudoeste 35 Sudoeste 0 922.4 -1.6 18
2019-08-03 16:00:00 34.3 16 Sur 31 Sur 0 922.9 -1.7 21
2019-08-03 15:00:00 32.8 13 Sudeste 29 Sur 0 923.5 -1.7 24
2019-08-03 14:00:00 32.2 16 Sur 26 Sur 0 924 -1.4 25
2019-08-03 13:00:00 30.1 10 Sur 20 Sudeste 0 924.6 -0.9 29
2019-08-03 12:00:00 28.8 9 Sur 18 Sur 0 925.2 -0.4 32
2019-08-03 11:00:00 26.3 6 Sur 14 Sur 0 925.4 0.1 41
2019-08-03 10:00:00 24.1 7 Sur 13 Sur 0 925.5 0.4 48
2019-08-03 09:00:00 21.6 4 Sur 7 Sur 0 925.6 0.6 54
2019-08-03 08:00:00 20.4 0 Calma 8 Sur 0 925.3 0.3 58
2019-08-03 07:00:00 17 5 Norte 9 Nordeste 0 925.1 -0.2 71
2019-08-03 06:00:00 18.1 4 Norte 10 Norte 0 925 -0.5 65
2019-08-03 05:00:00 18.3 10 Norte 11 Norte 0 925 -0.5 66
2019-08-03 04:00:00 19.2 3 Sudoeste 14 Noroeste 0 925.3 -0.2 61
2019-08-03 03:00:00 19.3 6 Norte 11 Noroeste 0 925.5 0.4 60
2019-08-03 02:00:00 19.7 6 Noroeste 9 Norte 0 925.5 0.6 59
2019-08-03 01:00:00 21.7 6 Oeste 12 Oeste 0 925.5 1.3 53
2019-08-03 00:00:00 21.2 8 Oeste 13 Noroeste 0 925.1 1.7 54
2019-08-02 23:00:00 22.9 4 Noroeste 19 Sudeste 0 924.9 1.7 48
2019-08-02 22:00:00 25.1 8 Sur 29 Oeste 0 924.2 1.3 37
2019-08-02 21:00:00 27.3 19 Oeste 27 Sudoeste 0 923.4 0.4 30
2019-08-02 20:00:00 28.9 20 Sudoeste 30 Oeste 0 923.2 0.1 28
2019-08-02 19:00:00 30.6 14 Sudoeste 37 Sudoeste 0 922.9 -0.5 28
2019-08-02 18:00:00 30.6 25 Sudoeste 40 Sudoeste 0 923 -0.7 27
2019-08-02 17:00:00 31.3 24 Sudoeste 44 Sudoeste 0 923.1 -0.8 25
2019-08-02 16:00:00 32.3 16 Sudoeste 42 Oeste 0 923.4 -1 23
2019-08-02 15:00:00 31.5 18 Oeste 40 Sudoeste 0 923.7 -1.1 20
2019-08-02 14:00:00 31 14 Sudoeste 33 Sudoeste 0 923.9 -1.2 25
2019-08-02 13:00:00 28.1 12 Sudeste 19 Sur 0 924.4 -0.7 41
2019-08-02 12:00:00 25.8 8 Sur 17 Sur 0 924.8 -0.2 51
2019-08-02 11:00:00 23.6 7 Sur 14 Sur 0 925.1 0.3 62
2019-08-02 10:00:00 21.7 4 Sur 8 Sur 0 925.1 0.7 69
2019-08-02 09:00:00 19.7 5 Sur 7 Sur 0 925 0.8 84
2019-08-02 08:00:00 18.5 0 Calma 7 Nordeste 0 924.8 0.4 82
2019-08-02 07:00:00 17 3 Norte 10 Noroeste 1.2 924.4 0 89
2019-08-02 06:00:00 17.1 3 Oeste 15 Noroeste 0.4 924.2 0.2 88
2019-08-02 05:00:00 17.1 4 Norte 11 Sudoeste 2.2 924.4 0.1 88
2019-08-02 04:00:00 18.7 14 Noroeste 21 Sur 0 924.4 0.5 65
2019-08-02 03:00:00 19.1 17 Norte 21 Norte 0 924 0.2 59
2019-08-02 02:00:00 19.8 5 Oeste 13 Sudeste 0 924.3 1.1 54
2019-08-02 01:00:00 22.4 4 Sudeste 13 Oeste 0 923.9 1.1 42
2019-08-02 00:00:00 22.7 7 Oeste 11 Oeste 0 923.8 2.1 41
2019-08-01 23:00:00 24 4 Sur 14 Noroeste 0 923.2 1.7 41
2019-08-01 22:00:00 23.4 8 Norte 13 Norte 0 922.8 1.7 41
2019-08-01 21:00:00 24.4 6 Norte 10 Sudoeste 0 921.7 0.1 36
2019-08-01 20:00:00 28.9 11 Sur 24 Sur 0 921.5 -0.2 28
2019-08-01 19:00:00 31.2 13 Sur 25 Sur 0 921.1 -0.9 23
2019-08-01 18:00:00 31.1 12 Sur 22 Sur 0 921.6 -0.8 21
2019-08-01 17:00:00 31.8 9 Sur 23 Sur 0 921.7 -1.2 21
2019-08-01 16:00:00 31.6 14 Sur 28 Sur 0 922 -1.4 21
2019-08-01 15:00:00 30.6 11 Sudeste 28 Sudeste 0 922.4 -1.5 21
2019-08-01 14:00:00 30.5 16 Sur 27 Sur 0 922.9 -1.3 22
2019-08-01 13:00:00 29.3 11 Sur 24 Sudoeste 0 923.4 -0.7 29
2019-08-01 12:00:00 27.6 12 Sur 23 Sur 0 923.9 0.1 36
2019-08-01 11:00:00 26.7 9 Sur 16 Sur 0 924.2 0.9 41
2019-08-01 10:00:00 23.4 6 Sur 15 Sur 0 924.1 0.6 53
2019-08-01 09:00:00 21.5 3 Sur 16 Sur 0 923.8 -0.5 64
2019-08-01 08:00:00 20.5 6 Norte 9 Norte 0 923.3 -1.4 68
2019-08-01 07:00:00 17.5 6 Noroeste 11 Norte 0 923.5 -1 82
2019-08-01 06:00:00 18.8 0 Calma 17 Norte 0 924.3 -0.9 75
2019-08-01 05:00:00 18.2 4 Norte 9 Norte 0 924.7 -0.6 70
2019-08-01 04:00:00 18.2 6 Norte 10 Sur 0 924.5 -0.9 73
2019-08-01 03:00:00 19.2 4 Noroeste 9 Sudeste 0 925.2 -0.3 70
2019-08-01 02:00:00 19.8 2 Sudeste 10 Norte 0 925.3 -0.2 66
2019-08-01 01:00:00 20.8 5 Sudeste 15 Sudeste 0 925.4 0.3 61
2019-08-01 00:00:00 21.1 9 Norte 17 Norte 0 925.5 0.7 57
2019-07-31 23:00:00 21.7 4 Este 12 Sur 0 925.5 1 53
2019-07-31 22:00:00 21.6 5 Noroeste 11 Norte 0 925.1 0.8 50
2019-07-31 21:00:00 23.8 5 Sudeste 13 Sur 0 924.8 0.4 44
2019-07-31 20:00:00 26 12 Sur 23 Sur 0 924.5 -0.1 35
2019-07-31 19:00:00 28 16 Sur 24 Sur 0 924.3 -0.7 31
2019-07-31 18:00:00 28.6 17 Sur 28 Sur 0 924.4 -1 29
2019-07-31 17:00:00 29.2 16 Sur 32 Sur 0 924.6 -1.1 27
2019-07-31 16:00:00 30.3 18 Sur 32 Sur 0 925 -1.4 26
2019-07-31 15:00:00 29.6 17 Sur 30 Sur 0 925.4 -1.2 25
2019-07-31 14:00:00 27.5 10 Sudeste 23 Sur 0 925.7 -1.6 25
2019-07-31 13:00:00 26.6 12 Sur 21 Sur 0 926.4 -1.1 28
2019-07-31 12:00:00 24.1 6 Sur 13 Sur 0 926.6 -0.9 34
2019-07-31 11:00:00 21.8 7 Sur 15 Sudeste 0 927.3 0 39
2019-07-31 10:00:00 19.8 9 Sur 15 Sur 0 927.5 0.5 49
2019-07-31 09:00:00 17.9 4 Sur 7 Sur 0 927.5 0.8 55
2019-07-31 08:00:00 17.2 2 Nordeste 6 Norte 0 927.3 1 55
2019-07-31 07:00:00 15.2 2 Sudeste 6 Nordeste 0 927 0.9 59
2019-07-31 06:00:00 15.1 2 Sudoeste 5 Sur 0 926.7 0.6 59
2019-07-31 05:00:00 15.1 3 Nordeste 6 Sur 0 926.3 0.1 59
2019-07-31 04:00:00 17.7 3 Oeste 10 Norte 0 926.1 0 54
2019-07-31 03:00:00 16.8 4 Oeste 8 Noroeste 0 926.1 0.2 54
2019-07-31 02:00:00 17 5 Noroeste 9 Noroeste 0 926.2 0.4 43
2019-07-31 01:00:00 17.6 4 Norte 15 Norte 0 926.1 1 41
2019-07-31 00:00:00 18.5 12 Norte 14 Norte 0 925.9 1.6 39
2019-07-30 23:00:00 20 6 Noroeste 25 Oeste 0 925.8 2.2 36
2019-07-30 22:00:00 22 14 Oeste 31 Oeste 0 925.1 1.8 31
2019-07-30 21:00:00 23.1 18 Oeste 27 Sudoeste 0 924.3 1 28
2019-07-30 20:00:00 26.1 17 Sudoeste 28 Sudoeste 0 923.6 0.1 23
2019-07-30 19:00:00 27.9 23 Sudoeste 34 Oeste 0 923.3 -0.4 22
2019-07-30 18:00:00 28.1 14 Oeste 37 Oeste 0 923.3 -0.6 25
2019-07-30 17:00:00 28.6 13 Oeste 37 Sudoeste 0 923.5 -0.8 27
2019-07-30 16:00:00 29.2 16 Sudoeste 30 Sur 0 923.7 -0.8 29
2019-07-30 15:00:00 28.4 18 Sur 28 Sur 0 923.9 -0.6 33
2019-07-30 14:00:00 27.1 18 Sur 30 Sur 0 924.3 -0.1 37
2019-07-30 13:00:00 27.8 17 Sur 32 Sur 0 924.5 0.2 40
2019-07-30 12:00:00 26.3 12 Sudeste 25 Sur 0 924.5 0.3 47
2019-07-30 11:00:00 24.8 14 Sur 25 Sur 0 924.4 0.8 52
2019-07-30 10:00:00 23.6 13 Sur 23 Sur 0 924.3 1.1 56
2019-07-30 09:00:00 22.2 7 Sudeste 14 Este 0 924.2 1.7 63
2019-07-30 08:00:00 20.4 5 Este 10 Este 0 923.6 1.6 62
2019-07-30 07:00:00 19.8 6 Este 19 Este 0 923.2 1.2 68
2019-07-30 06:00:00 20.4 6 Sudeste 14 Sudeste 0 922.5 0.1 61
2019-07-30 05:00:00 19.2 5 Noroeste 9 Norte 0 922 -0.3 66
2019-07-30 04:00:00 20.7 3 Sudoeste 15 Noroeste 0 922 0 60
2019-07-30 03:00:00 21.1 8 Noroeste 16 Sudeste 0 922.4 0.6 56
2019-07-30 02:00:00 21.9 3 Oeste 8 Norte 0 922.3 1.2 44
2019-07-30 01:00:00 21 8 Norte 12 Norte 0 922 1.6 44
2019-07-30 00:00:00 22.3 5 Nordeste 14 Nordeste 0 921.8 2.1 37
2019-07-29 23:00:00 22.2 8 Noroeste 13 Noroeste 0 921.1 1.7 36
2019-07-29 22:00:00 23.1 5 Este 12 Norte 0 920.4 1.2 32
2019-07-29 21:00:00 23.7 9 Norte 13 Norte 0 919.7 0.3 31
2019-07-29 20:00:00 30 8 Oeste 21 Sudoeste 0 919.4 -0.2 21
2019-07-29 19:00:00 30.2 13 Sudoeste 25 Sudoeste 0 919.2 -0.5 19
2019-07-29 18:00:00 30.8 13 Oeste 32 Sudoeste 0 919.4 -0.5 18
2019-07-29 17:00:00 31.1 24 Sudoeste 37 Sudoeste 0 919.6 -0.6 19
2019-07-29 16:00:00 31.2 10 Sudoeste 32 Oeste 0 919.7 -0.8 18
2019-07-29 15:00:00 30 14 Sudoeste 31 Sudoeste 0 919.9 -1 19
2019-07-29 14:00:00 29.5 17 Sudoeste 32 Sudoeste 0 920.2 -0.8 20
2019-07-29 13:00:00 28.2 15 Sur 26 Sudoeste 0 920.5 -0.5 23
2019-07-29 12:00:00 24.4 7 Sur 18 Sur 0 920.9 -0.1 36
2019-07-29 11:00:00 22.6 8 Sur 13 Sur 0 921 0.2 44
2019-07-29 10:00:00 19.9 5 Sur 13 Sur 0 921 0.5 53
2019-07-29 09:00:00 18.1 3 Sudoeste 7 Sur 0 921 0.8 56
2019-07-29 08:00:00 17.4 3 Sudeste 6 Sur 0 920.8 0.6 54
2019-07-29 07:00:00 14.2 4 Noroeste 6 Noroeste 0 920.5 0.1 66
2019-07-29 06:00:00 15.3 3 Sudoeste 9 Noroeste 0 920.2 -0.2 62
2019-07-29 05:00:00 15.1 3 Noroeste 8 Norte 0 920.2 -0.2 61
2019-07-29 04:00:00 16.5 3 Sudoeste 8 Nordeste 0 920.4 0 56
2019-07-29 03:00:00 16.2 5 Nordeste 10 Noroeste 0 920.4 0.1 54
2019-07-29 02:00:00 16.7 7 Noroeste 9 Noroeste 0 920.4 0.2 51
2019-07-29 01:00:00 17.6 2 Este 6 Sudeste 0 920.4 0.6 48
2019-07-29 00:00:00 18.4 6 Noroeste 10 Norte 0 920.3 1.4 43
2019-07-28 23:00:00 19.8 4 Este 13 Norte 0 920.2 1.7 41
2019-07-28 22:00:00 20.5 5 Sudoeste 24 Oeste 0 919.8 1.9 40
2019-07-28 21:00:00 22.2 15 Oeste 24 Oeste 0 918.9 1.1 36
2019-07-28 20:00:00 24.9 15 Oeste 29 Sudoeste 0 918.5 0.7 30
2019-07-28 19:00:00 26.3 15 Sudoeste 31 Sudoeste 0 917.9 -0.1 24
2019-07-28 18:00:00 27.3 21 Sudoeste 32 Oeste 0 917.8 -0.5 22
2019-07-28 17:00:00 27.1 16 Sur 34 Sur 0 917.8 -0.7 22
2019-07-28 16:00:00 27.3 13 Sur 30 Sudoeste 0 918 -0.7 24
2019-07-28 15:00:00 27.3 13 Sudoeste 32 Sudoeste 0 918.3 -0.7 18
2019-07-28 14:00:00 25.2 9 Sudeste 27 Sur 0 918.5 -0.5 26
2019-07-28 13:00:00 24.3 14 Sur 26 Sur 0 918.7 -0.3 27
2019-07-28 12:00:00 23.3 8 Sur 22 Sur 0 919 0.2 32
2019-07-28 11:00:00 21.7 10 Sur 17 Sudeste 0 919 0.5 34
2019-07-28 10:00:00 20.5 6 Sudeste 19 Sudeste 0 919 1 34
2019-07-28 09:00:00 17.9 4 Sudeste 15 Nordeste 0 918.8 1.1 49
2019-07-28 08:00:00 17.4 5 Nordeste 15 Noroeste 0 918.5 1.3 41
2019-07-28 07:00:00 14 9 Norte 16 Norte 0 918 0.9 55
2019-07-28 06:00:00 13.5 13 Norte 20 Noroeste 0 917.7 0.8 60
2019-07-28 05:00:00 13.4 10 Norte 18 Norte 0 917.2 0.6 59
2019-07-28 04:00:00 13.4 13 Norte 18 Norte 0 917.1 0.6 66
2019-07-28 03:00:00 14.3 8 Nordeste 12 Nordeste 0 916.9 0.7 60
2019-07-28 02:00:00 14.1 4 Norte 9 Nordeste 0 916.6 0.6 65
2019-07-28 01:00:00 14.7 9 Norte 15 Norte 0 916.5 1.1 70
2019-07-28 00:00:00 15.7 2 Sudeste 9 Nordeste 0 916.2 1.7 65
2019-07-27 23:00:00 15.8 5 Norte 13 Norte 0 916 1.9 68
2019-07-26 12:00:00 -- -- -- -- -- -- -- -- --
2019-07-26 11:00:00 25.4 5 Sudoeste 9 Sur 0 922 -0.4 54
2019-07-26 10:00:00 23.1 5 Sur 10 Sur 0 922.3 -0.1 59
2019-07-26 09:00:00 21.7 3 Sudoeste 11 Norte 0 922.4 0 64
2019-07-26 08:00:00 18.8 10 Norte 30 Norte 0 922.4 -0.1 73
2019-07-26 07:00:00 18.6 17 Norte 22 Norte 0.8 922.4 -0.3 73
2019-07-26 06:00:00 20.1 3 Oeste 12 Norte 0 922.4 -0.7 66
2019-07-26 05:00:00 23.1 2 Sudoeste 6 Noroeste 0 922.5 -0.8 45
2019-07-26 04:00:00 21.9 4 Noroeste 11 Norte 0 922.7 -1 44
2019-07-26 03:00:00 20.9 9 Noroeste 15 Noroeste 0 923.1 -0.8 47
2019-07-26 02:00:00 22.9 10 Norte 14 Noroeste 0 923.3 -0.7 43
2019-07-26 01:00:00 24.6 10 Noroeste 15 Norte 0 923.7 -0.2 42
2019-07-26 00:00:00 24 7 Nordeste 14 Norte 0 923.9 0.4 41
2019-07-25 23:00:00 24.1 6 Norte 12 Noroeste 0 924 1.2 40
2019-07-25 22:00:00 25.6 8 Norte 19 Sudeste 0 923.9 1.3 38
2019-07-25 21:00:00 28.8 15 Sudeste 24 Sudeste 0 923.5 1.2 36
2019-07-25 20:00:00 30.3 14 Sur 31 Sur 0 922.8 0.2 26
2019-07-25 19:00:00 32.6 25 Sur 36 Sur 0 922.6 -0.3 21
2019-07-25 18:00:00 34.9 24 Sur 38 Sur 0 922.3 -1.3 17
2019-07-25 17:00:00 35.8 15 Sur 31 Sur 0 922.6 -1.4 15
2019-07-25 16:00:00 36.3 15 Sur 30 Sur 0 922.9 -1.6 14
2019-07-25 15:00:00 35.5 13 Sur 27 Sur 0 923.6 -1.1 13
2019-07-25 14:00:00 34.9 11 Sur 28 Sudoeste 0 924 -1 17
2019-07-25 13:00:00 33.2 11 Sur 19 Sudeste 0 924.5 -0.6 21
2019-07-25 12:00:00 32 10 Sur 19 Sur 0 924.7 -0.6 26
2019-07-25 11:00:00 29.7 6 Sur 12 Sudoeste 0 925 -0.4 30
2019-07-25 10:00:00 26.5 5 Sur 9 Sudoeste 0 925.1 -0.1 40
2019-07-25 09:00:00 24.3 4 Sur 6 Sur 0 925.3 0.4 46
2019-07-25 08:00:00 23.1 3 Sur 5 Sudeste 0 925.4 0.5 45
2019-07-25 07:00:00 21.4 3 Sur 5 Sur 0 925.2 0.1 49
2019-07-25 06:00:00 21.5 2 Sur 8 Noroeste 0 924.9 -0.5 49
2019-07-25 05:00:00 22.5 3 Sudoeste 5 Sudoeste 0 924.9 -0.8 47
2019-07-25 04:00:00 22.5 0 Calma 8 Norte 0 925.1 -0.8 45
2019-07-25 03:00:00 22.9 6 Norte 8 Norte 0 925.4 -0.7 45
2019-07-25 02:00:00 24 4 Oeste 8 Oeste 0 925.7 -0.4 41
2019-07-25 01:00:00 25.8 4 Oeste 10 Noroeste 0 925.9 0.1 38
2019-07-25 00:00:00 25.1 10 Noroeste 14 Noroeste 0 926.1 1.2 38
2019-07-24 23:00:00 24.5 5 Noroeste 13 Este 0 926.1 1.8 41
2019-07-24 22:00:00 27.3 3 Sudeste 22 Sudeste 0 925.8 1.7 34
2019-07-24 21:00:00 30 17 Sudeste 27 Sudeste 0 924.9 0.7 26
2019-07-24 20:00:00 33.4 17 Sur 27 Sur 0 924.3 -0.1 15
2019-07-24 19:00:00 35.7 19 Sudoeste 31 Sur 0 924.1 -0.6 11
2019-07-24 18:00:00 36 19 Sudoeste 38 Sur 0 924.2 -0.9 12
2019-07-24 17:00:00 37 20 Sur 37 Sur 0 924.4 -1.2 12
2019-07-24 16:00:00 37.5 23 Sur 34 Sur 0 924.7 -1.5 13
2019-07-24 15:00:00 37.5 18 Sur 40 Sudoeste 0 925.1 -1.5 13
2019-07-24 14:00:00 35.5 10 Sur 23 Sudeste 0 925.6 -1.2 16
2019-07-24 13:00:00 34.2 11 Sur 20 Sur 0 926.2 -0.6 18
2019-07-24 12:00:00 32.1 7 Sur 14 Sur 0 926.6 -0.2 21
2019-07-24 11:00:00 29.4 7 Sur 12 Sur 0 926.8 0.2 30
2019-07-24 10:00:00 27 6 Sur 9 Sur 0 926.8 0.2 34
2019-07-24 09:00:00 24.9 3 Sur 9 Sur 0 926.8 0.4 36
2019-07-24 08:00:00 23.3 0 Calma 8 Norte 0 926.6 0.1 37
2019-07-24 07:00:00 21.3 4 Sur 9 Norte 0 926.6 -0.3 41
2019-07-24 06:00:00 21 3 Oeste 7 Sudoeste 0 926.4 -0.6 42
2019-07-24 05:00:00 22.2 5 Sudeste 8 Norte 0 926.5 -0.9 37
2019-07-24 04:00:00 22.7 6 Sudoeste 11 Sudoeste 0 926.9 -0.7 36
2019-07-24 03:00:00 24.4 0 Calma 7 Norte 0 927 -0.8 31
2019-07-24 02:00:00 23.9 3 Noroeste 11 Noroeste 0 927.4 -0.2 33
2019-07-24 01:00:00 24.3 10 Norte 15 Norte 0 927.6 0.6 32
2019-07-24 00:00:00 26.2 5 Oeste 13 Noroeste 0 927.8 1.7 31
2019-07-23 23:00:00 26 9 Norte 12 Norte 0 927.6 1.9 33
2019-07-23 22:00:00 27.7 5 Sudeste 17 Sudoeste 0 927 1.4 30
2019-07-23 21:00:00 30.9 8 Sudoeste 19 Sudoeste 0 926.1 0.2 21
2019-07-23 20:00:00 34 12 Sudoeste 27 Sudoeste 0 925.7 -0.4 13
2019-07-23 19:00:00 35.5 18 Sudoeste 30 Sudoeste 0 925.6 -0.9 12
2019-07-23 18:00:00 36.8 20 Sudoeste 36 Sur 0 925.9 -1.2 12
2019-07-23 17:00:00 37.4 15 Sudoeste 32 Sudoeste 0 926.1 -1.4 11
2019-07-23 16:00:00 37.5 24 Sudoeste 42 Sudoeste 0 926.5 -1.6 10
2019-07-23 15:00:00 37.2 14 Oeste 36 Sudoeste 0 927.1 -1.4 12
2019-07-23 14:00:00 36.5 12 Sudoeste 32 Sur 0 927.5 -1.5 13
2019-07-23 13:00:00 34.2 12 Sur 17 Sur 0 928.1 -1.2 19
2019-07-23 12:00:00 31.5 7 Sur 13 Sur 0 928.5 -0.9 26
2019-07-23 11:00:00 28.9 9 Sur 14 Sudoeste 0 929 -0.2 32
2019-07-23 10:00:00 26.7 5 Sur 9 Sur 0 929.3 0 36
2019-07-23 09:00:00 24.3 3 Sur 6 Sur 0 929.4 0.1 39
2019-07-23 08:00:00 23.5 3 Nordeste 4 Noroeste 0 929.2 -0.2 42
2019-07-23 07:00:00 21 0 Calma 5 Nordeste 0 929.3 -0.6 42
2019-07-23 06:00:00 21.2 0 Calma 5 Oeste 0 929.3 -0.9 42
2019-07-23 05:00:00 20.2 4 Norte 5 Norte 0 929.4 -1.3 43
2019-07-23 04:00:00 22.5 2 Sur 4 Este 0 929.9 -0.9 37
2019-07-23 03:00:00 23.6 2 Oeste 9 Norte 0 930.2 -0.5 35
2019-07-23 02:00:00 24.2 2 Sur 9 Norte 0 930.7 0 34
2019-07-23 01:00:00 24.4 4 Sudoeste 12 Norte 0 930.8 0.6 33
2019-07-23 00:00:00 25.5 3 Oeste 12 Norte 0 930.7 1.1 31
2019-07-22 23:00:00 26.4 2 Este 11 Norte 0 930.7 1.4 29
2019-07-22 22:00:00 26.7 4 Norte 16 Sudeste 0 930.2 1.1 32
2019-07-22 21:00:00 29.5 6 Sudoeste 21 Sudoeste 0 929.6 0.4 25
2019-07-22 20:00:00 32.7 18 Sudoeste 28 Sudoeste 0 929.3 -0.1 18
2019-07-22 19:00:00 34.8 17 Sur 31 Sur 0 929.1 -0.6 14
2019-07-22 18:00:00 35.9 21 Sur 36 Sur 0 929.2 -0.8 12
2019-07-22 17:00:00 36.7 24 Sur 38 Sur 0 929.4 -1.2 13
2019-07-22 16:00:00 36.2 15 Sur 32 Sudoeste 0 929.7 -1.5 14
2019-07-22 15:00:00 36.9 19 Sur 34 Sur 0 930 -1.6 15
2019-07-22 14:00:00 34.7 12 Sudeste 34 Sur 0 930.6 -1.3 19
2019-07-22 13:00:00 33.9 12 Sur 21 Sur 0 931.2 -0.8 20
2019-07-22 12:00:00 31 6 Sur 14 Sur 0 931.6 -0.5 31
2019-07-22 11:00:00 28.7 8 Sur 13 Sur 0 931.9 -0.1 39
2019-07-22 10:00:00 26.3 5 Sur 10 Sur 0 932 0.2 44
2019-07-22 09:00:00 24.7 4 Sur 6 Sur 0 932.1 0.4 48
2019-07-22 08:00:00 23.9 0 Calma 3 Sudoeste 0 932 0.4 46
2019-07-22 07:00:00 21.3 3 Sudoeste 5 Nordeste 0 931.8 0.2 52
2019-07-22 06:00:00 21.2 2 Norte 5 Sudoeste 0 931.7 0 49
2019-07-22 05:00:00 21.9 3 Noroeste 6 Nordeste 0 931.6 -0.2 48
2019-07-22 04:00:00 23.9 0 Calma 6 Noroeste 0 931.6 -0.5 42
2019-07-22 03:00:00 23 0 Calma 13 Noroeste 0 931.7 0 42
2019-07-22 02:00:00 23.3 11 Norte 13 Noroeste 0 931.8 0.6 42
2019-07-22 01:00:00 23.8 5 Oeste 9 Oeste 0 932.1 1.5 43
2019-07-22 00:00:00 23.9 0 Calma 18 Sudeste 0 931.7 2 39
2019-07-21 23:00:00 26 6 Sudeste 20 Sur 0 931.2 1.9 33
2019-07-21 22:00:00 26.5 3 Sudeste 18 Sur 0 930.6 1.7 37
2019-07-21 21:00:00 28.1 12 Sudeste 19 Sur 0 929.7 1.1 36
2019-07-21 20:00:00 30.7 14 Sur 23 Sur 0 929.3 0.3 31
2019-07-21 19:00:00 32.4 18 Sur 30 Sur 0 928.9 -0.2 25
2019-07-21 18:00:00 33.9 17 Sur 24 Sur 0 928.6 -0.9 21
2019-07-21 17:00:00 34.5 14 Sur 27 Sur 0 929 -0.9 19
2019-07-21 16:00:00 35 15 Sur 28 Sur 0 929.1 -1.2 19
2019-07-21 15:00:00 33.6 15 Sur 27 Sur 0 929.5 -0.9 22
2019-07-21 14:00:00 32.8 13 Sur 22 Sur 0 929.9 -0.4 24
2019-07-21 13:00:00 31.7 8 Sudeste 20 Sur 0 930.3 0 25
2019-07-21 12:00:00 30 9 Sur 16 Sur 0 930.4 0 29
2019-07-21 11:00:00 28.3 6 Sur 13 Sur 0 930.3 0.3 36
2019-07-21 10:00:00 25.6 5 Sur 10 Sur 0 930.3 0.8 45
2019-07-21 09:00:00 24.1 4 Sur 7 Sur 0 930.4 1 48
2019-07-21 08:00:00 23.5 3 Sudoeste 4 Sur 0 930 0.9 48
2019-07-21 07:00:00 20.6 0 Calma 4 Sudoeste 0 929.5 0.4 52
2019-07-21 06:00:00 20.5 3 Sur 5 Norte 0 929.4 0.2 52
2019-07-21 05:00:00 20.1 3 Oeste 16 Noroeste 0 929.1 -0.3 52
2019-07-21 04:00:00 20.3 4 Noroeste 9 Oeste 0 929.1 -0.1 55
2019-07-21 03:00:00 22.1 3 Sudoeste 12 Noroeste 0 929.2 0.5 48
2019-07-21 02:00:00 20.8 6 Norte 14 Norte 0 929.4 1.3 52
2019-07-21 01:00:00 22.3 5 Oeste 10 Sur 0 929.2 1.7 53
2019-07-21 00:00:00 23.5 3 Sudoeste 9 Oeste 0 928.7 2.2 51
2019-07-20 23:00:00 25.1 3 Sur 21 Sudeste 0 928.1 2.6 47
2019-07-20 22:00:00 25.1 15 Sudeste 30 Sudeste 0 927.5 2.8 46
2019-07-20 21:00:00 26.2 17 Sudeste 33 Sur 0 926.5 1.9 42
2019-07-20 20:00:00 28.7 21 Sudeste 33 Sudeste 0 925.5 0.6 35
2019-07-20 19:00:00 32.7 16 Sur 29 Sur 0 924.7 -0.3 22
2019-07-20 18:00:00 33.5 10 Sur 28 Sur 0 924.6 -0.9 22
2019-07-20 17:00:00 33 13 Sur 27 Sur 0 924.9 -0.9 22
2019-07-20 16:00:00 33.9 17 Sur 26 Sur 0 925 -1 21
2019-07-20 15:00:00 32.8 12 Sur 24 Sur 0 925.5 -0.6 24
2019-07-20 14:00:00 31 10 Sur 28 Sur 0 925.8 -0.3 25
2019-07-20 13:00:00 29.3 9 Sur 16 Sur 0 926 0 28
2019-07-20 12:00:00 28.1 8 Sur 17 Sur 0 926.1 0.3 30
2019-07-20 11:00:00 26.7 7 Sur 13 Sur 0 926.1 0.7 31
2019-07-20 10:00:00 24.5 4 Sur 12 Sur 0 926 1.3 44
2019-07-20 09:00:00 22.8 3 Sur 6 Sur 0 925.8 1.3 59
2019-07-20 08:00:00 21.5 2 Sudeste 8 Norte 0 925.4 1.2 63
2019-07-20 07:00:00 19.6 6 Noroeste 12 Norte 0 924.7 0.4 71
2019-07-20 06:00:00 19.2 3 Norte 5 Norte 0 924.5 0.2 71
2019-07-20 05:00:00 20 3 Sudoeste 12 Noroeste 0 924.2 -0.2 66
2019-07-20 04:00:00 19.7 11 Noroeste 13 Norte 0 924.3 -0.7 67
2019-07-20 03:00:00 21.1 6 Sur 9 Sudoeste 0 924.3 -0.9 62
2019-07-20 02:00:00 21.8 4 Sur 13 Norte 0 924.4 -0.6 59
2019-07-20 01:00:00 21.4 6 Noroeste 11 Noroeste 0 925 0.3 59
2019-07-20 00:00:00 21.7 8 Sudoeste 12 Oeste 0 925.2 1.3 53
2019-07-19 23:00:00 22.4 6 Noroeste 15 Sudeste 0 925 1.6 49
2019-07-19 22:00:00 23.7 12 Sudeste 29 Sur 0 924.7 1.3 47
2019-07-19 21:00:00 25.4 13 Sudeste 24 Este 0 923.9 0.4 48
2019-07-19 20:00:00 28.6 10 Sur 22 Sur 0 923.4 -0.4 32
2019-07-19 19:00:00 30.2 14 Sur 26 Sur 0 923.4 -0.7 26
2019-07-19 18:00:00 31 17 Sur 29 Sur 0 923.5 -1.1 24
2019-07-19 17:00:00 31.2 14 Sur 32 Sudoeste 0 923.8 -1.3 25
2019-07-19 16:00:00 31.4 17 Sur 29 Sur 0 924.1 -1.4 29
2019-07-19 15:00:00 31 14 Sur 30 Sur 0 924.6 -1.4 30
2019-07-19 14:00:00 29.2 14 Sur 28 Sur 0 925.1 -1.1 35
2019-07-19 13:00:00 27.9 6 Sudeste 19 Sur 0 925.5 -0.8 37
2019-07-19 12:00:00 26.3 9 Sur 18 Sur 0 926 -0.2 41
2019-07-19 11:00:00 24.7 7 Sur 13 Sur 0 926.2 0.3 50
2019-07-19 10:00:00 22.7 6 Sur 10 Sur 0 926.3 0.6 59
2019-07-19 09:00:00 20 5 Sur 9 Sur 0 926.2 0.5 71
2019-07-19 08:00:00 18.6 4 Sudoeste 6 Nordeste 0 925.9 0.3 73
2019-07-19 07:00:00 17.1 5 Nordeste 9 Norte 0 925.7 0.1 77
2019-07-19 06:00:00 16.7 6 Noroeste 12 Norte 0 925.7 0.1 81
2019-07-19 05:00:00 17.5 4 Oeste 9 Noroeste 0 925.6 -0.1 77
2019-07-19 04:00:00 18.4 0 Calma 7 Oeste 0 925.6 -0.1 74
2019-07-19 03:00:00 18.9 3 Sudoeste 11 Noroeste 0 925.6 0.5 70
2019-07-19 02:00:00 18.3 8 Noroeste 13 Sudeste 0 925.7 0.9 68
2019-07-19 01:00:00 20.7 3 Sur 16 Sudeste 0 925.7 1.4 57
2019-07-19 00:00:00 20.2 5 Noroeste 12 Norte 0 925.1 1.5 48